sensor_id;sensor_type;location;lat;lon;timestamp;pressure;altitude;pressure_sealevel;temperature;humidity
1726;BME280;41776;48.260;8.928;2023-05-09T00:00:54;52491.91;;;-145.69;100.00
1726;BME280;41776;48.260;8.928;2023-05-09T00:03:21;52533.50;;;-145.69;100.00
1726;BME280;41776;48.260;8.928;2023-05-09T00:05:49;52539.44;;;-145.69;100.00
1726;BME280;41776;48.260;8.928;2023-05-09T00:08:16;52537.47;;;-145.69;100.00
1726;BME280;41776;48.260;8.928;2023-05-09T00:10:44;52551.31;;;-145.69;100.00
1726;BME280;41776;48.260;8.928;2023-05-09T00:13:12;52519.63;;;-145.69;100.00
1726;BME280;41776;48.260;8.928;2023-05-09T00:15:39;52525.59;;;-145.69;100.00
1726;BME280;41776;48.260;8.928;2023-05-09T00:18:05;52503.81;;;-145.69;100.00
1726;BME280;41776;48.260;8.928;2023-05-09T00:20:34;52523.59;;;-145.69;100.00
1726;BME280;41776;48.260;8.928;2023-05-09T00:23:01;52543.41;;;-145.69;100.00
1726;BME280;41776;48.260;8.928;2023-05-09T00:25:27;52543.41;;;-145.69;100.00
1726;BME280;41776;48.260;8.928;2023-05-09T00:27:56;52571.13;;;-145.69;100.00
1726;BME280;41776;48.260;8.928;2023-05-09T00:30:24;52561.22;;;-145.69;100.00
1726;BME280;41776;48.260;8.928;2023-05-09T00:32:51;52507.75;;;-145.69;100.00
1726;BME280;41776;48.260;8.928;2023-05-09T00:35:17;52543.41;;;-145.69;100.00
1726;BME280;41776;48.260;8.928;2023-05-09T00:37:43;52573.13;;;-145.69;100.00
1726;BME280;41776;48.260;8.928;2023-05-09T00:40:11;52553.31;;;-145.69;100.00
1726;BME280;41776;48.260;8.928;2023-05-09T00:42:37;52533.50;;;-145.69;100.00
1726;BME280;41776;48.260;8.928;2023-05-09T00:45:06;52531.53;;;-145.69;100.00
1726;BME280;41776;48.260;8.928;2023-05-09T00:47:34;52553.31;;;-145.69;100.00
1726;BME280;41776;48.260;8.928;2023-05-09T00:50:00;52543.41;;;-145.69;100.00
1726;BME280;41776;48.260;8.928;2023-05-09T00:52:28;52543.41;;;-145.69;100.00
1726;BME280;41776;48.260;8.928;2023-05-09T00:54:55;52543.41;;;-145.69;100.00
1726;BME280;41776;48.260;8.928;2023-05-09T00:57:22;52559.25;;;-145.69;100.00
1726;BME280;41776;48.260;8.928;2023-05-09T00:59:48;52547.38;;;-145.69;100.00
1726;BME280;41776;48.260;8.928;2023-05-09T01:02:16;52567.16;;;-145.69;100.00
1726;BME280;41776;48.260;8.928;2023-05-09T01:04:44;52531.53;;;-145.69;100.00
1726;BME280;41776;48.260;8.928;2023-05-09T01:07:19;52535.47;;;-145.69;100.00
1726;BME280;41776;48.260;8.928;2023-05-09T01:09:50;52547.38;;;-145.69;100.00
1726;BME280;41776;48.260;8.928;2023-05-09T01:12:29;52575.09;;;-145.69;100.00
1726;BME280;41776;48.260;8.928;2023-05-09T01:15:02;52529.53;;;-145.69;100.00
1726;BME280;41776;48.260;8.928;2023-05-09T01:17:37;52559.25;;;-145.69;100.00
1726;BME280;41776;48.260;8.928;2023-05-09T01:20:12;52527.56;;;-145.69;100.00
1726;BME280;41776;48.260;8.928;2023-05-09T01:22:44;52533.50;;;-145.69;100.00
1726;BME280;41776;48.260;8.928;2023-05-09T01:25:37;52535.47;;;-145.69;100.00
1726;BME280;41776;48.260;8.928;2023-05-09T01:28:13;52555.28;;;-145.69;100.00
1726;BME280;41776;48.260;8.928;2023-05-09T01:30:43;52484.00;;;-145.69;100.00
1726;BME280;41776;48.260;8.928;2023-05-09T01:33:16;52561.22;;;-145.69;100.00
1726;BME280;41776;48.260;8.928;2023-05-09T01:35:44;52549.34;;;-145.69;100.00
1726;BME280;41776;48.260;8.928;2023-05-09T01:38:16;52519.63;;;-145.69;100.00
1726;BME280;41776;48.260;8.928;2023-05-09T01:40:46;52573.13;;;-145.69;100.00
1726;BME280;41776;48.260;8.928;2023-05-09T01:43:15;52535.47;;;-145.69;100.00
1726;BME280;41776;48.260;8.928;2023-05-09T01:45:50;52543.41;;;-145.69;100.00
1726;BME280;41776;48.260;8.928;2023-05-09T01:48:17;52569.16;;;-145.69;100.00
1726;BME280;41776;48.260;8.928;2023-05-09T01:50:45;52531.53;;;-145.69;100.00
1726;BME280;41776;48.260;8.928;2023-05-09T01:53:13;52555.28;;;-145.69;100.00
1726;BME280;41776;48.260;8.928;2023-05-09T01:55:44;52561.22;;;-145.69;100.00
1726;BME280;41776;48.260;8.928;2023-05-09T01:58:13;52563.22;;;-145.69;100.00
1726;BME280;41776;48.260;8.928;2023-05-09T02:00:42;52561.22;;;-145.69;100.00
1726;BME280;41776;48.260;8.928;2023-05-09T02:03:13;52559.25;;;-145.69;100.00
1726;BME280;41776;48.260;8.928;2023-05-09T02:05:40;52535.47;;;-145.69;100.00
1726;BME280;41776;48.260;8.928;2023-05-09T02:08:09;52539.44;;;-145.69;100.00
1726;BME280;41776;48.260;8.928;2023-05-09T02:10:36;52567.16;;;-145.69;100.00
1726;BME280;41776;48.260;8.928;2023-05-09T02:13:03;52575.09;;;-145.69;100.00
1726;BME280;41776;48.260;8.928;2023-05-09T02:15:29;52543.41;;;-145.69;100.00
1726;BME280;41776;48.260;8.928;2023-05-09T02:17:57;52515.69;;;-145.69;100.00
1726;BME280;41776;48.260;8.928;2023-05-09T02:20:24;52559.25;;;-145.69;100.00
1726;BME280;41776;48.260;8.928;2023-05-09T02:22:51;52561.22;;;-145.69;100.00
1726;BME280;41776;48.260;8.928;2023-05-09T02:25:20;52579.06;;;-145.69;100.00
1726;BME280;41776;48.260;8.928;2023-05-09T02:27:50;52565.19;;;-145.69;100.00
1726;BME280;41776;48.260;8.928;2023-05-09T02:30:20;52541.44;;;-145.69;100.00
1726;BME280;41776;48.260;8.928;2023-05-09T02:32:51;52539.44;;;-145.69;100.00
1726;BME280;41776;48.260;8.928;2023-05-09T02:35:19;52571.13;;;-145.69;100.00
1726;BME280;41776;48.260;8.928;2023-05-09T02:37:51;52557.28;;;-145.69;100.00
1726;BME280;41776;48.260;8.928;2023-05-09T02:40:18;52579.06;;;-145.69;100.00
1726;BME280;41776;48.260;8.928;2023-05-09T02:42:45;52588.97;;;-145.69;100.00
1726;BME280;41776;48.260;8.928;2023-05-09T02:45:12;52547.38;;;-145.69;100.00
1726;BME280;41776;48.260;8.928;2023-05-09T02:47:38;52543.41;;;-145.69;100.00
1726;BME280;41776;48.260;8.928;2023-05-09T02:50:06;52543.41;;;-145.69;100.00
1726;BME280;41776;48.260;8.928;2023-05-09T02:52:35;52592.91;;;-145.69;100.00
1726;BME280;41776;48.260;8.928;2023-05-09T02:55:03;52563.22;;;-145.69;100.00
1726;BME280;41776;48.260;8.928;2023-05-09T02:57:31;52575.09;;;-145.69;100.00
1726;BME280;41776;48.260;8.928;2023-05-09T02:59:59;52577.06;;;-145.69;100.00
1726;BME280;41776;48.260;8.928;2023-05-09T03:02:25;52579.06;;;-145.69;100.00
1726;BME280;41776;48.260;8.928;2023-05-09T03:04:52;52567.16;;;-145.69;100.00
1726;BME280;41776;48.260;8.928;2023-05-09T03:07:18;52557.28;;;-145.69;100.00
1726;BME280;41776;48.260;8.928;2023-05-09T03:09:45;52551.31;;;-145.69;100.00
1726;BME280;41776;48.260;8.928;2023-05-09T03:12:13;52569.16;;;-145.69;100.00
1726;BME280;41776;48.260;8.928;2023-05-09T03:14:39;52555.28;;;-145.69;100.00
1726;BME280;41776;48.260;8.928;2023-05-09T03:17:06;52559.25;;;-145.69;100.00
1726;BME280;41776;48.260;8.928;2023-05-09T03:19:32;52614.72;;;-145.69;100.00
1726;BME280;41776;48.260;8.928;2023-05-09T03:21:58;52563.22;;;-145.69;100.00
1726;BME280;41776;48.260;8.928;2023-05-09T03:24:25;52561.22;;;-145.69;100.00
1726;BME280;41776;48.260;8.928;2023-05-09T03:26:52;52559.25;;;-145.69;100.00
1726;BME280;41776;48.260;8.928;2023-05-09T03:29:20;52588.97;;;-145.69;100.00
1726;BME280;41776;48.260;8.928;2023-05-09T03:31:46;52590.94;;;-145.69;100.00
1726;BME280;41776;48.260;8.928;2023-05-09T03:34:13;52551.31;;;-145.69;100.00
1726;BME280;41776;48.260;8.928;2023-05-09T03:36:40;52575.09;;;-145.69;100.00
1726;BME280;41776;48.260;8.928;2023-05-09T03:39:07;52581.03;;;-145.69;100.00
1726;BME280;41776;48.260;8.928;2023-05-09T03:41:34;52581.03;;;-145.69;100.00
1726;BME280;41776;48.260;8.928;2023-05-09T03:44:01;52594.91;;;-145.69;100.00
1726;BME280;41776;48.260;8.928;2023-05-09T03:46:29;52555.28;;;-145.69;100.00
1726;BME280;41776;48.260;8.928;2023-05-09T03:48:55;52571.13;;;-145.69;100.00
1726;BME280;41776;48.260;8.928;2023-05-09T03:51:21;52590.94;;;-145.69;100.00
1726;BME280;41776;48.260;8.928;2023-05-09T03:53:48;52594.91;;;-145.69;100.00
1726;BME280;41776;48.260;8.928;2023-05-09T03:56:14;52577.06;;;-145.69;100.00
1726;BME280;41776;48.260;8.928;2023-05-09T03:58:42;52579.06;;;-145.69;100.00
1726;BME280;41776;48.260;8.928;2023-05-09T04:01:08;52555.28;;;-145.69;100.00
1726;BME280;41776;48.260;8.928;2023-05-09T04:03:36;52571.13;;;-145.69;100.00
1726;BME280;41776;48.260;8.928;2023-05-09T04:06:03;52581.03;;;-145.69;100.00
1726;BME280;41776;48.260;8.928;2023-05-09T04:08:30;52561.22;;;-145.69;100.00
1726;BME280;41776;48.260;8.928;2023-05-09T04:10:57;52592.91;;;-145.69;100.00
1726;BME280;41776;48.260;8.928;2023-05-09T04:13:23;52579.06;;;-145.69;100.00
1726;BME280;41776;48.260;8.928;2023-05-09T04:15:50;52559.25;;;-145.69;100.00
1726;BME280;41776;48.260;8.928;2023-05-09T04:18:16;52575.09;;;-145.69;100.00
1726;BME280;41776;48.260;8.928;2023-05-09T04:20:44;52586.97;;;-145.69;100.00
1726;BME280;41776;48.260;8.928;2023-05-09T04:23:11;52551.31;;;-145.69;100.00
1726;BME280;41776;48.260;8.928;2023-05-09T04:25:37;52590.94;;;-145.69;100.00
1726;BME280;41776;48.260;8.928;2023-05-09T04:28:04;52547.38;;;-145.69;100.00
1726;BME280;41776;48.260;8.928;2023-05-09T04:30:30;52551.31;;;-145.69;100.00
1726;BME280;41776;48.260;8.928;2023-05-09T04:32:57;52563.22;;;-145.69;100.00
1726;BME280;41776;48.260;8.928;2023-05-09T04:35:23;52571.13;;;-145.69;100.00
1726;BME280;41776;48.260;8.928;2023-05-09T04:37:52;52583.00;;;-145.69;100.00
1726;BME280;41776;48.260;8.928;2023-05-09T04:40:18;52571.13;;;-145.69;100.00
1726;BME280;41776;48.260;8.928;2023-05-09T04:42:45;52569.16;;;-145.69;100.00
1726;BME280;41776;48.260;8.928;2023-05-09T04:45:11;52523.59;;;-145.69;100.00
1726;BME280;41776;48.260;8.928;2023-05-09T04:47:38;52575.09;;;-145.69;100.00
1726;BME280;41776;48.260;8.928;2023-05-09T04:50:05;52575.09;;;-145.69;100.00
1726;BME280;41776;48.260;8.928;2023-05-09T04:52:32;52577.06;;;-145.69;100.00
1726;BME280;41776;48.260;8.928;2023-05-09T04:55:00;52585.00;;;-145.69;100.00
1726;BME280;41776;48.260;8.928;2023-05-09T04:57:27;52551.31;;;-145.69;100.00
1726;BME280;41776;48.260;8.928;2023-05-09T04:59:53;52567.16;;;-145.69;100.00
1726;BME280;41776;48.260;8.928;2023-05-09T05:02:20;52519.63;;;-145.69;100.00
1726;BME280;41776;48.260;8.928;2023-05-09T05:04:46;52571.13;;;-145.69;100.00
1726;BME280;41776;48.260;8.928;2023-05-09T05:07:13;52559.25;;;-145.69;100.00
1726;BME280;41776;48.260;8.928;2023-05-09T05:09:39;52571.13;;;-145.69;100.00
1726;BME280;41776;48.260;8.928;2023-05-09T05:12:07;52559.25;;;-145.69;100.00
1726;BME280;41776;48.260;8.928;2023-05-09T05:14:33;52531.53;;;-145.69;100.00
1726;BME280;41776;48.260;8.928;2023-05-09T05:17:00;52547.38;;;-145.69;100.00
1726;BME280;41776;48.260;8.928;2023-05-09T05:19:26;52531.53;;;-145.69;100.00
1726;BME280;41776;48.260;8.928;2023-05-09T05:21:53;52523.59;;;-145.69;100.00
1726;BME280;41776;48.260;8.928;2023-05-09T05:24:19;52573.13;;;-145.69;100.00
1726;BME280;41776;48.260;8.928;2023-05-09T05:26:46;52553.31;;;-145.69;100.00
1726;BME280;41776;48.260;8.928;2023-05-09T05:29:13;52549.34;;;-145.69;100.00
1726;BME280;41776;48.260;8.928;2023-05-09T05:31:40;52547.38;;;-145.69;100.00
1726;BME280;41776;48.260;8.928;2023-05-09T05:34:06;52527.56;;;-145.69;100.00
1726;BME280;41776;48.260;8.928;2023-05-09T05:36:32;52551.31;;;-145.69;100.00
1726;BME280;41776;48.260;8.928;2023-05-09T05:38:59;52561.22;;;-145.69;100.00
1726;BME280;41776;48.260;8.928;2023-05-09T05:41:25;52559.25;;;-145.69;100.00
1726;BME280;41776;48.260;8.928;2023-05-09T05:43:52;52551.31;;;-145.69;100.00
1726;BME280;41776;48.260;8.928;2023-05-09T05:46:20;52555.28;;;-145.69;100.00
1726;BME280;41776;48.260;8.928;2023-05-09T05:48:46;52531.53;;;-145.69;100.00
1726;BME280;41776;48.260;8.928;2023-05-09T05:51:12;52535.47;;;-145.69;100.00
1726;BME280;41776;48.260;8.928;2023-05-09T05:53:39;52507.75;;;-145.69;100.00
1726;BME280;41776;48.260;8.928;2023-05-09T05:56:06;52551.31;;;-145.69;100.00
1726;BME280;41776;48.260;8.928;2023-05-09T05:58:32;52541.44;;;-145.69;100.00
1726;BME280;41776;48.260;8.928;2023-05-09T06:00:59;52529.53;;;-145.69;100.00
1726;BME280;41776;48.260;8.928;2023-05-09T06:03:27;52503.81;;;-145.69;100.00
1726;BME280;41776;48.260;8.928;2023-05-09T06:05:53;52523.59;;;-145.69;100.00
1726;BME280;41776;48.260;8.928;2023-05-09T06:08:21;52527.56;;;-145.69;100.00
1726;BME280;41776;48.260;8.928;2023-05-09T06:10:47;52493.91;;;-145.69;100.00
1726;BME280;41776;48.260;8.928;2023-05-09T06:13:13;52521.63;;;-145.69;100.00
1726;BME280;41776;48.260;8.928;2023-05-09T06:15:40;52513.69;;;-145.69;100.00
1726;BME280;41776;48.260;8.928;2023-05-09T06:18:06;52517.66;;;-145.69;100.00
1726;BME280;41776;48.260;8.928;2023-05-09T06:20:34;52491.91;;;-145.69;100.00
1726;BME280;41776;48.260;8.928;2023-05-09T06:23:01;52495.88;;;-145.69;100.00
1726;BME280;41776;48.260;8.928;2023-05-09T06:25:27;52456.28;;;-145.69;100.00
1726;BME280;41776;48.260;8.928;2023-05-09T06:27:53;52450.31;;;-145.69;100.00
1726;BME280;41776;48.260;8.928;2023-05-09T06:30:20;52462.22;;;-145.69;100.00
1726;BME280;41776;48.260;8.928;2023-05-09T06:32:46;52476.06;;;-145.69;100.00
1726;BME280;41776;48.260;8.928;2023-05-09T06:35:13;52495.88;;;-145.69;100.00
1726;BME280;41776;48.260;8.928;2023-05-09T06:37:41;52454.28;;;-145.69;100.00
1726;BME280;41776;48.260;8.928;2023-05-09T06:40:08;52470.13;;;-145.69;100.00
1726;BME280;41776;48.260;8.928;2023-05-09T06:42:34;52432.50;;;-145.69;100.00
1726;BME280;41776;48.260;8.928;2023-05-09T06:45:01;52456.28;;;-145.69;100.00
1726;BME280;41776;48.260;8.928;2023-05-09T06:47:27;52468.16;;;-145.69;100.00
1726;BME280;41776;48.260;8.928;2023-05-09T06:49:54;52444.38;;;-145.69;100.00
1726;BME280;41776;48.260;8.928;2023-05-09T06:52:20;52446.38;;;-145.69;100.00
1726;BME280;41776;48.260;8.928;2023-05-09T06:54:48;52438.44;;;-145.69;100.00
1726;BME280;41776;48.260;8.928;2023-05-09T06:57:17;52448.34;;;-145.69;100.00
1726;BME280;41776;48.260;8.928;2023-05-09T06:59:44;52452.31;;;-145.69;100.00
1726;BME280;41776;48.260;8.928;2023-05-09T07:02:10;52444.38;;;-145.69;100.00
1726;BME280;41776;48.260;8.928;2023-05-09T07:04:36;52446.38;;;-145.69;100.00
1726;BME280;41776;48.260;8.928;2023-05-09T07:07:03;52495.88;;;-145.69;100.00
1726;BME280;41776;48.260;8.928;2023-05-09T07:09:30;52470.13;;;-145.69;100.00
1726;BME280;41776;48.260;8.928;2023-05-09T07:11:58;52456.28;;;-145.69;100.00
1726;BME280;41776;48.260;8.928;2023-05-09T07:14:25;52485.97;;;-145.69;100.00
1726;BME280;41776;48.260;8.928;2023-05-09T07:16:51;52434.47;;;-145.69;100.00
1726;BME280;41776;48.260;8.928;2023-05-09T07:19:17;52452.31;;;-145.69;100.00
1726;BME280;41776;48.260;8.928;2023-05-09T07:21:44;52476.06;;;-145.69;100.00
1726;BME280;41776;48.260;8.928;2023-05-09T07:24:10;52456.28;;;-145.69;100.00
1726;BME280;41776;48.260;8.928;2023-05-09T07:26:37;52440.44;;;-145.69;100.00
1726;BME280;41776;48.260;8.928;2023-05-09T07:29:05;52499.84;;;-145.69;100.00
1726;BME280;41776;48.260;8.928;2023-05-09T07:31:31;52476.06;;;-145.69;100.00
1726;BME280;41776;48.260;8.928;2023-05-09T07:33:57;52468.16;;;-145.69;100.00
1726;BME280;41776;48.260;8.928;2023-05-09T07:36:24;52466.16;;;-145.69;100.00
1726;BME280;41776;48.260;8.928;2023-05-09T07:38:50;52452.31;;;-145.69;100.00
1726;BME280;41776;48.260;8.928;2023-05-09T07:41:17;52458.25;;;-145.69;100.00
1726;BME280;41776;48.260;8.928;2023-05-09T07:43:44;52460.22;;;-145.69;100.00
1726;BME280;41776;48.260;8.928;2023-05-09T07:46:12;52452.31;;;-145.69;100.00
1726;BME280;41776;48.260;8.928;2023-05-09T07:48:39;52468.16;;;-145.69;100.00
1726;BME280;41776;48.260;8.928;2023-05-09T07:51:05;52434.47;;;-145.69;100.00
1726;BME280;41776;48.260;8.928;2023-05-09T07:53:32;52452.31;;;-145.69;100.00
1726;BME280;41776;48.260;8.928;2023-05-09T07:55:58;52410.72;;;-145.69;100.00
1726;BME280;41776;48.260;8.928;2023-05-09T07:58:25;52404.78;;;-145.69;100.00
1726;BME280;41776;48.260;8.928;2023-05-09T08:00:54;52406.75;;;-145.69;100.00
1726;BME280;41776;48.260;8.928;2023-05-09T08:03:22;52412.69;;;-145.69;100.00
1726;BME280;41776;48.260;8.928;2023-05-09T08:05:52;52384.97;;;-145.69;100.00
1726;BME280;41776;48.260;8.928;2023-05-09T08:08:18;52408.75;;;-145.69;100.00
1726;BME280;41776;48.260;8.928;2023-05-09T08:10:44;52408.75;;;-145.69;100.00
1726;BME280;41776;48.260;8.928;2023-05-09T08:13:11;52392.91;;;-145.69;100.00
1726;BME280;41776;48.260;8.928;2023-05-09T08:15:37;52398.84;;;-145.69;100.00
1726;BME280;41776;48.260;8.928;2023-05-09T08:18:04;52379.03;;;-145.69;100.00
1726;BME280;41776;48.260;8.928;2023-05-09T08:20:32;52420.63;;;-145.69;100.00
1726;BME280;41776;48.260;8.928;2023-05-09T08:22:58;52377.06;;;-145.69;100.00
1726;BME280;41776;48.260;8.928;2023-05-09T08:25:25;52396.84;;;-145.69;100.00
1726;BME280;41776;48.260;8.928;2023-05-09T08:27:51;52392.91;;;-145.69;100.00
1726;BME280;41776;48.260;8.928;2023-05-09T08:30:18;52448.34;;;-145.69;100.00
1726;BME280;41776;48.260;8.928;2023-05-09T08:32:44;52388.94;;;-145.69;100.00
1726;BME280;41776;48.260;8.928;2023-05-09T08:35:11;52394.88;;;-145.69;100.00
1726;BME280;41776;48.260;8.928;2023-05-09T08:37:38;52398.84;;;-145.69;100.00
1726;BME280;41776;48.260;8.928;2023-05-09T08:40:06;52384.97;;;-145.69;100.00
1726;BME280;41776;48.260;8.928;2023-05-09T08:42:35;52373.09;;;-145.69;100.00
1726;BME280;41776;48.260;8.928;2023-05-09T08:45:06;52333.47;;;-145.69;100.00
1726;BME280;41776;48.260;8.928;2023-05-09T08:47:34;52347.34;;;-145.69;99.49
1726;BME280;41776;48.260;8.928;2023-05-09T08:50:02;52349.31;;;-145.69;100.00
1726;BME280;41776;48.260;8.928;2023-05-09T08:52:29;52357.25;;;-145.69;100.00
1726;BME280;41776;48.260;8.928;2023-05-09T08:54:57;52339.44;;;-145.69;100.00
1726;BME280;41776;48.260;8.928;2023-05-09T08:57:26;52341.41;;;-145.69;100.00
1726;BME280;41776;48.260;8.928;2023-05-09T08:59:53;52361.22;;;-145.69;100.00
1726;BME280;41776;48.260;8.928;2023-05-09T09:02:20;52345.38;;;-145.69;100.00
1726;BME280;41776;48.260;8.928;2023-05-09T09:04:47;52329.53;;;-145.69;100.00
1726;BME280;41776;48.260;8.928;2023-05-09T09:07:16;52321.59;;;-145.69;100.00
1726;BME280;41776;48.260;8.928;2023-05-09T09:09:45;52341.41;;;-145.69;100.00
1726;BME280;41776;48.260;8.928;2023-05-09T09:12:14;52345.38;;;-145.69;95.87
1726;BME280;41776;48.260;8.928;2023-05-09T09:14:45;52373.09;;;-145.69;85.18
1726;BME280;41776;48.260;8.928;2023-05-09T09:17:16;52351.31;;;-145.69;84.08
1726;BME280;41776;48.260;8.928;2023-05-09T09:19:44;52323.59;;;-145.69;83.41
1726;BME280;41776;48.260;8.928;2023-05-09T09:22:15;52329.53;;;-145.69;79.76
1726;BME280;41776;48.260;8.928;2023-05-09T09:24:43;52295.84;;;-145.69;76.49
1726;BME280;41776;48.260;8.928;2023-05-09T09:27:10;52341.41;;;-145.69;80.34
1726;BME280;41776;48.260;8.928;2023-05-09T09:29:38;52305.75;;;-145.69;85.04
1726;BME280;41776;48.260;8.928;2023-05-09T09:32:06;52353.28;;;-145.69;86.40
1726;BME280;41776;48.260;8.928;2023-05-09T09:34:34;52349.31;;;-145.69;91.66
1726;BME280;41776;48.260;8.928;2023-05-09T09:37:01;52333.47;;;-145.69;83.45
1726;BME280;41776;48.260;8.928;2023-05-09T09:39:30;52327.53;;;-145.69;78.60
1726;BME280;41776;48.260;8.928;2023-05-09T09:42:08;52301.81;;;-145.69;74.66
1726;BME280;41776;48.260;8.928;2023-05-09T09:44:35;52317.66;;;-145.69;75.33
1726;BME280;41776;48.260;8.928;2023-05-09T09:47:03;52361.22;;;-145.69;77.51
1726;BME280;41776;48.260;8.928;2023-05-09T09:49:34;52335.47;;;-145.69;86.69
1726;BME280;41776;48.260;8.928;2023-05-09T09:52:01;52343.38;;;-145.69;76.68
1726;BME280;41776;48.260;8.928;2023-05-09T09:54:27;52341.41;;;-145.69;88.41
1726;BME280;41776;48.260;8.928;2023-05-09T09:56:54;52402.78;;;-145.69;100.00
1726;BME280;41776;48.260;8.928;2023-05-09T09:59:22;52432.50;;;-145.69;100.00
1726;BME280;41776;48.260;8.928;2023-05-09T10:01:54;52377.06;;;-145.69;100.00
1726;BME280;41776;48.260;8.928;2023-05-09T10:04:23;52375.06;;;-145.69;100.00
1726;BME280;41776;48.260;8.928;2023-05-09T10:06:51;52404.78;;;-145.69;100.00
1726;BME280;41776;48.260;8.928;2023-05-09T10:09:19;52402.78;;;-145.69;100.00
1726;BME280;41776;48.260;8.928;2023-05-09T10:11:47;52379.03;;;-145.69;100.00
1726;BME280;41776;48.260;8.928;2023-05-09T10:14:15;52388.94;;;-145.69;100.00
1726;BME280;41776;48.260;8.928;2023-05-09T10:16:42;52371.13;;;-145.69;100.00
1726;BME280;41776;48.260;8.928;2023-05-09T10:19:09;52377.06;;;-145.69;100.00
1726;BME280;41776;48.260;8.928;2023-05-09T10:21:38;52377.06;;;-145.69;98.41
1726;BME280;41776;48.260;8.928;2023-05-09T10:24:10;52317.66;;;-145.69;92.93
1726;BME280;41776;48.260;8.928;2023-05-09T10:26:37;52321.59;;;-145.69;90.28
1726;BME280;41776;48.260;8.928;2023-05-09T10:29:09;52351.31;;;-145.69;90.89
1726;BME280;41776;48.260;8.928;2023-05-09T10:31:41;52331.50;;;-145.69;82.89
1726;BME280;41776;48.260;8.928;2023-05-09T10:34:14;52313.69;;;-145.69;83.48
1726;BME280;41776;48.260;8.928;2023-05-09T10:36:42;52299.81;;;-145.69;79.78
1726;BME280;41776;48.260;8.928;2023-05-09T10:39:11;52289.91;;;-145.69;93.47
1726;BME280;41776;48.260;8.928;2023-05-09T10:41:39;52299.81;;;-145.69;77.23
1726;BME280;41776;48.260;8.928;2023-05-09T10:44:05;52303.78;;;-145.69;76.69
1726;BME280;41776;48.260;8.928;2023-05-09T10:46:32;52323.59;;;-145.69;84.90
1726;BME280;41776;48.260;8.928;2023-05-09T10:49:00;52282.00;;;-145.69;78.08
1726;BME280;41776;48.260;8.928;2023-05-09T10:51:27;52278.03;;;-145.69;71.18
1726;BME280;41776;48.260;8.928;2023-05-09T10:53:55;52285.97;;;-145.69;61.59
1726;BME280;41776;48.260;8.928;2023-05-09T10:56:27;52289.91;;;-145.69;65.82
1726;BME280;41776;48.260;8.928;2023-05-09T10:58:55;52282.00;;;-145.69;65.34
1726;BME280;41776;48.260;8.928;2023-05-09T11:01:29;52299.81;;;-145.69;68.29
1726;BME280;41776;48.260;8.928;2023-05-09T11:03:58;52301.81;;;-145.69;69.09
1726;BME280;41776;48.260;8.928;2023-05-09T11:06:42;52283.97;;;-145.69;63.89
1726;BME280;41776;48.260;8.928;2023-05-09T11:09:28;52285.97;;;-145.69;77.33
1726;BME280;41776;48.260;8.928;2023-05-09T11:12:08;52297.84;;;-145.69;71.67
1726;BME280;41776;48.260;8.928;2023-05-09T11:14:41;52285.97;;;-145.69;72.74
1726;BME280;41776;48.260;8.928;2023-05-09T11:17:10;52297.84;;;-145.69;68.29
1726;BME280;41776;48.260;8.928;2023-05-09T11:19:58;52256.25;;;-145.69;66.46
1726;BME280;41776;48.260;8.928;2023-05-09T11:22:28;52266.16;;;-145.69;61.72
1726;BME280;41776;48.260;8.928;2023-05-09T11:25:04;52242.38;;;-145.69;56.97
1726;BME280;41776;48.260;8.928;2023-05-09T11:27:38;52256.25;;;-145.69;62.55
1726;BME280;41776;48.260;8.928;2023-05-09T11:30:06;52293.88;;;-145.69;64.25
1726;BME280;41776;48.260;8.928;2023-05-09T11:32:40;52282.00;;;-145.69;73.54
1726;BME280;41776;48.260;8.928;2023-05-09T11:35:08;52285.97;;;-145.69;86.69
1726;BME280;41776;48.260;8.928;2023-05-09T11:37:43;52325.56;;;-145.69;98.56
1726;BME280;41776;48.260;8.928;2023-05-09T11:40:12;52365.16;;;-145.69;100.00
1726;BME280;41776;48.260;8.928;2023-05-09T11:42:41;52379.03;;;-145.69;100.00
1726;BME280;41776;48.260;8.928;2023-05-09T11:45:09;52379.03;;;-145.69;100.00
1726;BME280;41776;48.260;8.928;2023-05-09T11:47:36;52361.22;;;-145.69;100.00
1726;BME280;41776;48.260;8.928;2023-05-09T11:50:05;52365.16;;;-145.69;100.00
1726;BME280;41776;48.260;8.928;2023-05-09T11:52:32;52377.06;;;-145.69;100.00
1726;BME280;41776;48.260;8.928;2023-05-09T11:54:58;52349.31;;;-145.69;100.00
1726;BME280;41776;48.260;8.928;2023-05-09T11:57:27;52377.06;;;-145.69;100.00
1726;BME280;41776;48.260;8.928;2023-05-09T11:59:53;52373.09;;;-145.69;100.00
1726;BME280;41776;48.260;8.928;2023-05-09T12:02:20;52373.09;;;-145.69;100.00
1726;BME280;41776;48.260;8.928;2023-05-09T12:04:48;52373.09;;;-145.69;100.00
1726;BME280;41776;48.260;8.928;2023-05-09T12:07:15;52363.19;;;-145.69;100.00
1726;BME280;41776;48.260;8.928;2023-05-09T12:09:43;52357.25;;;-145.69;100.00
1726;BME280;41776;48.260;8.928;2023-05-09T12:12:10;52345.38;;;-145.69;100.00
1726;BME280;41776;48.260;8.928;2023-05-09T12:14:39;52335.47;;;-145.69;100.00
1726;BME280;41776;48.260;8.928;2023-05-09T12:17:06;52317.66;;;-145.69;100.00
1726;BME280;41776;48.260;8.928;2023-05-09T12:19:34;52321.59;;;-145.69;99.80
1726;BME280;41776;48.260;8.928;2023-05-09T12:22:02;52327.53;;;-145.69;84.41
1726;BME280;41776;48.260;8.928;2023-05-09T12:24:30;52309.72;;;-145.69;73.64
1726;BME280;41776;48.260;8.928;2023-05-09T12:27:00;52295.84;;;-145.69;79.30
1726;BME280;41776;48.260;8.928;2023-05-09T12:29:27;52335.47;;;-145.69;76.21
1726;BME280;41776;48.260;8.928;2023-05-09T12:31:58;52321.59;;;-145.69;85.78
1726;BME280;41776;48.260;8.928;2023-05-09T12:34:28;52295.84;;;-145.69;78.48
1726;BME280;41776;48.260;8.928;2023-05-09T12:36:55;52248.34;;;-145.69;84.55
1726;BME280;41776;48.260;8.928;2023-05-09T12:39:24;52262.19;;;-145.69;69.30
1726;BME280;41776;48.260;8.928;2023-05-09T12:41:54;52258.22;;;-145.69;70.87
1726;BME280;41776;48.260;8.928;2023-05-09T12:44:22;52230.50;;;-145.69;63.03
1726;BME280;41776;48.260;8.928;2023-05-09T12:46:55;52256.25;;;-145.69;59.76